Time;durP1;ratioP1;P1;durP2;ratioP2;P2;SDS_P1;SDS_P2;PMS_P1;PMS_P2;Temp;Humidity;BMP_temperature;BMP_pressure;BME280_temperature;BME280_humidity;BME280_pressure;Samples;Min_cycle;Max_cycle;Signal;HPM_P1;HPM_P2
2021/09/07 00:00:48;;;;;;;;;;;;;;;18.92;49.02;101817.03;5118524;28;798;-45
2021/09/07 00:03:13;;;;;;;;;;;;;;;19.01;49.16;101820.94;5135704;27;822;-44
2021/09/07 00:05:39;;;;;;;;;;;;;;;19.27;52.47;101821.94;5139269;27;838;-49
2021/09/07 00:08:05;;;;;;;;;;;;;;;19.37;55.11;101826.69;5137532;27;861;-43
2021/09/07 00:10:30;;;;;;;;;;;;;;;19.71;56.36;101815.25;5139426;27;1969;-51
2021/09/07 00:12:56;;;;;;;;;;;;;;;19.72;56.10;101816.09;5139117;27;810;-44
2021/09/07 00:15:23;;;;;;;;;;;;;;;19.49;55.91;101824.56;5137422;27;996;-46
2021/09/07 00:17:51;;;;;;;;;;;;;;;19.33;54.70;101817.28;5139777;27;735;-51
2021/09/07 00:20:16;;;;;;;;;;;;;;;19.19;54.24;101814.16;5137490;27;776;-44
2021/09/07 00:22:45;;;;;;;;;;;;;;;19.20;53.74;101815.00;5139817;27;1588;-52
2021/09/07 00:25:10;;;;;;;;;;;;;;;19.14;54.29;101806.69;5138635;27;771;-53
2021/09/07 00:27:36;;;;;;;;;;;;;;;19.43;54.18;101811.84;5138878;27;771;-46
2021/09/07 00:30:01;;;;;;;;;;;;;;;19.41;55.00;101813.22;5123683;27;1921;-50
2021/09/07 00:32:27;;;;;;;;;;;;;;;19.30;55.98;101809.56;5135379;27;779;-43
2021/09/07 00:34:52;;;;;;;;;;;;;;;19.65;56.25;101802.56;5138436;27;807;-46
2021/09/07 00:37:21;;;;;;;;;;;;;;;19.88;57.20;101805.97;5139266;27;707;-43
2021/09/07 00:39:48;;;;;;;;;;;;;;;19.96;57.95;101794.41;5138070;27;865;-43
2021/09/07 00:42:14;;;;;;;;;;;;;;;20.49;57.37;101797.81;5138741;27;744;-44
2021/09/07 00:44:39;;;;;;;;;;;;;;;20.50;58.31;101799.47;5126499;27;899;-51
2021/09/07 00:47:05;;;;;;;;;;;;;;;20.42;59.06;101802.78;5117634;28;815;-49
2021/09/07 00:49:33;;;;;;;;;;;;;;;20.49;59.48;101797.81;5118056;28;901;-52
2021/09/07 00:52:01;;;;;;;;;;;;;;;20.68;58.99;101800.88;5121204;27;1980;-52
2021/09/07 00:54:27;;;;;;;;;;;;;;;20.93;58.66;101796.47;5136476;27;970;-51
2021/09/07 00:56:55;;;;;;;;;;;;;;;20.90;59.02;101799.78;5138468;27;731;-50
2021/09/07 00:59:20;;;;;;;;;;;;;;;20.99;58.86;101806.38;5136815;27;981;-52
2021/09/07 01:01:46;;;;;;;;;;;;;;;21.05;58.66;101804.44;5138009;27;767;-45
2021/09/07 01:04:15;;;;;;;;;;;;;;;20.60;57.94;101803.34;5138215;27;872;-47
2021/09/07 01:06:40;;;;;;;;;;;;;;;20.13;56.56;101800.53;5137948;27;834;-47
2021/09/07 01:09:07;;;;;;;;;;;;;;;20.15;54.36;101800.25;5137593;27;1410;-46
2021/09/07 01:11:33;;;;;;;;;;;;;;;19.68;53.71;101799.25;5138152;27;1967;-47
2021/09/07 01:13:59;;;;;;;;;;;;;;;19.40;53.17;101803.25;5131598;27;976;-53
2021/09/07 01:16:25;;;;;;;;;;;;;;;19.12;52.77;101797.03;5116993;28;810;-51
2021/09/07 01:18:52;;;;;;;;;;;;;;;18.92;52.70;101804.06;5117529;28;830;-51
2021/09/07 01:21:17;;;;;;;;;;;;;;;19.09;51.79;101800.31;5124736;27;1561;-47
2021/09/07 01:23:43;;;;;;;;;;;;;;;19.09;52.38;101798.38;5137453;27;663;-45
2021/09/07 01:26:16;;;;;;;;;;;;;;;19.25;53.10;101792.97;5137899;27;802;-46
2021/09/07 01:28:42;;;;;;;;;;;;;;;19.39;54.21;101794.16;5133882;27;830;-47
2021/09/07 01:31:10;;;;;;;;;;;;;;;19.25;55.51;101798.47;5116993;28;1972;-43
2021/09/07 01:33:39;;;;;;;;;;;;;;;19.51;56.34;101790.34;5117678;28;806;-47
2021/09/07 01:36:05;;;;;;;;;;;;;;;20.08;56.46;101791.41;5117181;28;869;-46
2021/09/07 01:38:30;;;;;;;;;;;;;;;20.10;57.82;101797.47;5125877;27;755;-49
2021/09/07 01:40:56;;;;;;;;;;;;;;;20.43;57.95;101790.63;5137763;27;766;-48
2021/09/07 01:43:21;;;;;;;;;;;;;;;20.66;57.83;101793.94;5136151;27;977;-46
2021/09/07 01:45:47;;;;;;;;;;;;;;;20.71;58.20;101787.63;5116638;28;799;-48
2021/09/07 01:48:16;;;;;;;;;;;;;;;20.82;58.38;101792.88;5117008;27;882;-50
2021/09/07 01:50:44;;;;;;;;;;;;;;;20.73;58.95;101779.88;5116729;28;1971;-49
2021/09/07 01:53:09;;;;;;;;;;;;;;;20.92;58.73;101789.25;5116774;28;857;-47
2021/09/07 01:55:35;;;;;;;;;;;;;;;20.97;58.89;101789.25;5116854;28;814;-48
2021/09/07 01:58:00;;;;;;;;;;;;;;;21.10;58.62;101790.63;5136458;27;814;-49
2021/09/07 02:00:26;;;;;;;;;;;;;;;20.87;58.24;101782.91;5118196;27;999;-52
2021/09/07 02:02:51;;;;;;;;;;;;;;;20.24;57.57;101784.78;5116762;28;751;-52
2021/09/07 02:05:18;;;;;;;;;;;;;;;19.86;54.63;101784.16;5117860;27;819;-46
2021/09/07 02:07:44;;;;;;;;;;;;;;;19.35;52.39;101784.75;5135303;27;804;-53
2021/09/07 02:10:11;;;;;;;;;;;;;;;19.07;49.93;101784.06;5136801;27;1917;-48
2021/09/07 02:12:36;;;;;;;;;;;;;;;18.80;48.68;101779.44;5137227;27;818;-48
2021/09/07 02:15:02;;;;;;;;;;;;;;;18.74;50.58;101780.47;5121569;27;955;-55
2021/09/07 02:17:28;;;;;;;;;;;;;;;19.20;53.33;101787.44;5115955;28;933;-49
2021/09/07 02:19:55;;;;;;;;;;;;;;;19.57;55.14;101779.09;5134683;27;814;-51
2021/09/07 02:22:22;;;;;;;;;;;;;;;19.66;56.77;101782.16;5136499;27;1572;-50
2021/09/07 02:24:48;;;;;;;;;;;;;;;20.07;57.11;101782.28;5137178;27;859;-46
2021/09/07 02:27:14;;;;;;;;;;;;;;;20.31;57.83;101782.63;5137175;28;799;-45
2021/09/07 02:29:40;;;;;;;;;;;;;;;20.41;58.67;101781.81;5124735;27;1012;-49
2021/09/07 02:32:09;;;;;;;;;;;;;;;20.78;57.84;101777.13;5136614;27;1984;-51
2021/09/07 02:34:34;;;;;;;;;;;;;;;20.88;58.42;101785.41;5135120;28;864;-45
2021/09/07 02:37:00;;;;;;;;;;;;;;;20.97;58.44;101780.13;5136375;27;814;-45
2021/09/07 02:39:26;;;;;;;;;;;;;;;21.07;58.43;101782.03;5136674;27;802;-44
2021/09/07 02:41:53;;;;;;;;;;;;;;;20.96;59.09;101773.78;5137007;27;854;-46
2021/09/07 02:44:20;;;;;;;;;;;;;;;21.25;58.42;101778.69;5132323;27;849;-44
2021/09/07 02:46:46;;;;;;;;;;;;;;;21.11;58.55;101775.69;5136525;27;807;-49
2021/09/07 02:49:13;;;;;;;;;;;;;;;20.72;58.34;101773.53;5136957;27;749;-43
2021/09/07 02:51:43;;;;;;;;;;;;;;;20.13;55.97;101772.94;5136759;27;1913;-43
2021/09/07 02:54:10;;;;;;;;;;;;;;;19.55;53.52;101773.00;5136712;27;790;-49
2021/09/07 02:56:37;;;;;;;;;;;;;;;19.23;51.01;101767.59;5136769;27;827;-43
2021/09/07 02:59:04;;;;;;;;;;;;;;;18.81;49.43;101772.81;5134567;27;859;-44
2021/09/07 03:01:30;;;;;;;;;;;;;;;18.89;48.52;101770.72;5136440;27;755;-50
2021/09/07 03:03:56;;;;;;;;;;;;;;;19.18;51.76;101768.41;5136754;27;807;-43
2021/09/07 03:06:22;;;;;;;;;;;;;;;19.53;53.92;101771.59;5136040;28;835;-51
2021/09/07 03:08:48;;;;;;;;;;;;;;;19.71;55.97;101771.09;5136205;27;1003;-49
2021/09/07 03:11:13;;;;;;;;;;;;;;;19.84;57.57;101764.31;5136124;27;1960;-43
2021/09/07 03:13:39;;;;;;;;;;;;;;;19.99;58.34;101756.06;5133970;27;829;-48
2021/09/07 03:16:05;;;;;;;;;;;;;;;20.40;58.12;101763.56;5135644;27;826;-51
2021/09/07 03:18:31;;;;;;;;;;;;;;;20.33;59.03;101769.34;5135507;28;859;-47
2021/09/07 03:20:57;;;;;;;;;;;;;;;20.84;58.17;101765.75;5135805;27;1422;-53
2021/09/07 03:23:24;;;;;;;;;;;;;;;20.66;59.16;101766.31;5136392;28;853;-45
2021/09/07 03:25:50;;;;;;;;;;;;;;;21.05;58.49;101767.69;5136542;27;754;-44
2021/09/07 03:28:16;;;;;;;;;;;;;;;21.17;58.01;101760.72;5135095;27;826;-48
2021/09/07 03:30:42;;;;;;;;;;;;;;;21.11;58.47;101763.78;5117080;28;1977;-47
2021/09/07 03:33:10;;;;;;;;;;;;;;;21.11;58.58;101767.38;5120187;28;830;-49
2021/09/07 03:35:36;;;;;;;;;;;;;;;21.37;57.68;101770.88;5119445;28;927;-43
2021/09/07 03:38:03;;;;;;;;;;;;;;;20.83;57.59;101768.81;5119652;28;825;-43
2021/09/07 03:40:30;;;;;;;;;;;;;;;20.15;56.03;101767.94;5119177;28;818;-46
2021/09/07 03:42:56;;;;;;;;;;;;;;;19.61;53.16;101776.59;5122881;27;770;-43
2021/09/07 03:45:22;;;;;;;;;;;;;;;19.34;50.32;101774.00;5124615;27;948;-51
2021/09/07 03:47:50;;;;;;;;;;;;;;;18.90;48.97;101772.34;5141018;27;818;-46
2021/09/07 03:50:15;;;;;;;;;;;;;;;18.67;47.86;101779.06;5160495;27;1968;-43
2021/09/07 03:52:42;;;;;;;;;;;;;;;18.87;51.13;101768.19;5140707;27;1109;-51
2021/09/07 03:55:10;;;;;;;;;;;;;;;19.24;53.91;101783.06;5139668;27;825;-48
2021/09/07 03:57:36;;;;;;;;;;;;;;;19.48;55.72;101775.16;5139357;27;818;-42
2021/09/07 04:00:03;;;;;;;;;;;;;;;19.87;56.95;101779.50;5123902;27;960;-56
2021/09/07 04:02:38;;;;;;;;;;;;;;;20.22;57.59;101775.97;5131450;27;1083;-54
2021/09/07 04:05:05;;;;;;;;;;;;;;;20.52;58.07;101783.47;5139135;27;806;-44
2021/09/07 04:07:30;;;;;;;;;;;;;;;20.52;58.52;101769.66;5139717;27;779;-54
2021/09/07 04:09:57;;;;;;;;;;;;;;;20.73;58.70;101790.94;5138880;27;1909;-44
2021/09/07 04:12:23;;;;;;;;;;;;;;;20.82;58.84;101781.81;5139187;27;810;-55
2021/09/07 04:14:50;;;;;;;;;;;;;;;20.76;59.06;101780.16;5125541;27;973;-55
2021/09/07 04:17:16;;;;;;;;;;;;;;;21.09;58.32;101777.88;5118462;28;866;-43
2021/09/07 04:19:46;;;;;;;;;;;;;;;21.16;58.17;101783.94;5117899;28;846;-55
2021/09/07 04:22:12;;;;;;;;;;;;;;;21.37;57.59;101779.19;5133427;27;1565;-50
2021/09/07 04:24:38;;;;;;;;;;;;;;;21.12;57.73;101782.84;5138937;27;806;-44
2021/09/07 04:27:03;;;;;;;;;;;;;;;20.45;57.58;101791.16;5138787;27;802;-47
2021/09/07 04:29:29;;;;;;;;;;;;;;;19.86;55.38;101780.59;5128028;27;956;-45
2021/09/07 04:31:54;;;;;;;;;;;;;;;19.33;52.57;101792.47;5117946;28;1921;-46
2021/09/07 04:34:19;;;;;;;;;;;;;;;19.25;50.13;101790.22;5118777;28;787;-44
2021/09/07 04:36:45;;;;;;;;;;;;;;;18.53;49.32;101787.75;5118343;28;775;-43
2021/09/07 04:39:13;;;;;;;;;;;;;;;18.53;49.05;101785.00;5117971;28;739;-53
2021/09/07 04:41:39;;;;;;;;;;;;;;;18.88;51.95;101782.81;5118125;28;763;-44
2021/09/07 04:44:05;;;;;;;;;;;;;;;19.12;54.56;101786.81;5117488;27;929;-44
2021/09/07 04:46:33;;;;;;;;;;;;;;;19.27;56.71;101790.78;5118124;28;870;-45
2021/09/07 04:48:59;;;;;;;;;;;;;;;19.55;56.79;101794.25;5116985;28;822;-48
2021/09/07 04:51:24;;;;;;;;;;;;;;;19.42;56.86;101796.38;5117590;28;1913;-52
2021/09/07 04:53:50;;;;;;;;;;;;;;;19.22;56.24;101801.78;5117924;28;786;-45
2021/09/07 04:56:16;;;;;;;;;;;;;;;19.37;54.87;101799.09;5117703;28;732;-58
2021/09/07 04:58:41;;;;;;;;;;;;;;;19.14;54.88;101798.44;5117184;27;1023;-58
2021/09/07 05:01:06;;;;;;;;;;;;;;;19.23;54.76;101797.94;5117533;28;867;-46
2021/09/07 05:03:32;;;;;;;;;;;;;;;19.19;55.52;101808.66;5117872;28;823;-55
2021/09/07 05:06:00;;;;;;;;;;;;;;;19.18;56.22;101808.91;5121196;27;1359;-50
2021/09/07 05:08:27;;;;;;;;;;;;;;;19.32;56.07;101810.94;5138134;27;1026;-48
2021/09/07 05:10:52;;;;;;;;;;;;;;;19.34;56.35;101810.69;5137857;27;1976;-45
2021/09/07 05:13:18;;;;;;;;;;;;;;;19.36;56.30;101816.75;5137115;27;984;-46
2021/09/07 05:15:43;;;;;;;;;;;;;;;19.29;56.60;101811.50;5117823;28;755;-45
2021/09/07 05:18:08;;;;;;;;;;;;;;;19.45;56.42;101817.91;5117070;28;739;-56
2021/09/07 05:20:34;;;;;;;;;;;;;;;19.41;56.68;101819.53;5117665;27;1584;-46
2021/09/07 05:22:59;;;;;;;;;;;;;;;19.43;56.43;101814.59;5137992;27;774;-46
2021/09/07 05:25:26;;;;;;;;;;;;;;;19.34;56.86;101816.19;5137985;27;739;-45
2021/09/07 05:27:52;;;;;;;;;;;;;;;19.63;56.15;101815.81;5137903;27;778;-44
2021/09/07 05:30:17;;;;;;;;;;;;;;;19.42;56.57;101812.94;5120102;27;1921;-46
2021/09/07 05:32:45;;;;;;;;;;;;;;;19.43;56.43;101822.03;5117232;28;826;-44
2021/09/07 05:35:11;;;;;;;;;;;;;;;19.47;56.47;101826.75;5116361;28;763;-44
2021/09/07 05:37:40;;;;;;;;;;;;;;;19.47;56.36;101824.00;5117016;28;795;-45
2021/09/07 05:40:09;;;;;;;;;;;;;;;19.72;55.78;101822.44;5116958;28;787;-46
2021/09/07 05:42:35;;;;;;;;;;;;;;;19.55;56.05;101830.09;5115297;28;1279;-57
2021/09/07 05:45:00;;;;;;;;;;;;;;;19.46;56.58;101827.00;5117841;27;1155;-57
2021/09/07 05:47:26;;;;;;;;;;;;;;;19.35;57.01;101823.38;5125893;27;883;-44
2021/09/07 05:49:52;;;;;;;;;;;;;;;19.48;56.53;101827.59;5136332;27;759;-49
2021/09/07 05:52:17;;;;;;;;;;;;;;;19.63;56.51;101824.06;5136000;27;1974;-45
2021/09/07 05:54:43;;;;;;;;;;;;;;;19.68;56.02;101818.56;5135864;27;817;-45
2021/09/07 05:57:08;;;;;;;;;;;;;;;19.41;56.92;101822.28;5136839;27;818;-44
2021/09/07 05:59:34;;;;;;;;;;;;;;;19.55;56.46;101817.13;5125463;27;1015;-45
2021/09/07 06:01:59;;;;;;;;;;;;;;;19.37;57.03;101815.66;5115437;28;803;-46
2021/09/07 06:04:24;;;;;;;;;;;;;;;19.48;56.87;101819.31;5115745;28;774;-46
2021/09/07 06:06:51;;;;;;;;;;;;;;;19.35;56.99;101820.63;5116051;28;763;-50
2021/09/07 06:09:16;;;;;;;;;;;;;;;19.54;56.44;101826.50;5115455;28;1082;-45
2021/09/07 06:11:43;;;;;;;;;;;;;;;19.58;56.28;101822.09;5115459;28;1917;-45
2021/09/07 06:14:16;;;;;;;;;;;;;;;19.69;56.17;101823.00;5115785;27;1057;-55
2021/09/07 06:16:41;;;;;;;;;;;;;;;19.58;56.20;101829.56;5115629;28;763;-50
2021/09/07 06:19:07;;;;;;;;;;;;;;;19.53;56.40;101835.91;5134945;27;1099;-46
2021/09/07 06:21:32;;;;;;;;;;;;;;;19.42;56.78;101835.00;5126249;27;1552;-54
2021/09/07 06:24:01;;;;;;;;;;;;;;;19.48;56.64;101838.63;5115534;28;822;-55
2021/09/07 06:26:26;;;;;;;;;;;;;;;19.43;56.74;101833.91;5115570;28;775;-58
2021/09/07 06:28:52;;;;;;;;;;;;;;;19.69;56.17;101831.25;5116952;27;934;-58
2021/09/07 06:31:17;;;;;;;;;;;;;;;19.54;56.39;101836.72;5135761;28;1972;-53
2021/09/07 06:33:43;;;;;;;;;;;;;;;19.62;56.31;101844.47;5135562;27;854;-52
2021/09/07 06:36:08;;;;;;;;;;;;;;;19.49;56.53;101841.09;5135606;27;865;-57
2021/09/07 06:38:34;;;;;;;;;;;;;;;19.61;56.48;101837.28;5136033;27;791;-54
2021/09/07 06:40:59;;;;;;;;;;;;;;;19.52;56.92;101838.88;5135382;27;826;-58
2021/09/07 06:43:25;;;;;;;;;;;;;;;19.56;56.63;101840.88;5134136;27;960;-57
2021/09/07 06:45:50;;;;;;;;;;;;;;;19.58;56.46;101833.13;5115285;28;818;-58
2021/09/07 06:48:16;;;;;;;;;;;;;;;19.46;56.98;101840.78;5115065;28;830;-57
2021/09/07 06:50:43;;;;;;;;;;;;;;;19.46;57.04;101851.81;5115586;28;1973;-57
2021/09/07 06:53:12;;;;;;;;;;;;;;;19.58;56.95;101852.44;5114974;28;873;-54
2021/09/07 06:55:38;;;;;;;;;;;;;;;19.66;56.56;101854.72;5115235;28;814;-58
2021/09/07 06:58:04;;;;;;;;;;;;;;;19.65;56.58;101850.28;5115294;28;814;-57
2021/09/07 07:00:29;;;;;;;;;;;;;;;19.58;56.85;101859.91;5114953;27;953;-57
2021/09/07 07:02:57;;;;;;;;;;;;;;;19.73;56.73;101856.41;5115082;28;857;-53
2021/09/07 07:05:25;;;;;;;;;;;;;;;19.75;56.55;101852.25;5118547;28;834;-48
2021/09/07 07:07:50;;;;;;;;;;;;;;;19.58;57.03;101851.63;5119354;28;837;-59
2021/09/07 07:10:18;;;;;;;;;;;;;;;19.61;57.02;101859.38;5118791;28;1984;-53
2021/09/07 07:12:44;;;;;;;;;;;;;;;19.64;56.83;101854.16;5118611;28;759;-46
2021/09/07 07:15:09;;;;;;;;;;;;;;;19.70;56.94;101871.56;5119403;27;949;-45
2021/09/07 07:17:35;;;;;;;;;;;;;;;19.72;56.97;101854.75;5129799;27;1055;-56
2021/09/07 07:20:01;;;;;;;;;;;;;;;19.61;57.40;101864.88;5139171;27;775;-48
2021/09/07 07:22:26;;;;;;;;;;;;;;;19.73;57.03;101865.50;5122822;27;1662;-46
2021/09/07 07:24:52;;;;;;;;;;;;;;;19.64;57.03;101861.59;5129240;27;1125;-54
2021/09/07 07:27:17;;;;;;;;;;;;;;;19.55;57.38;101863.22;5139114;27;767;-57
2021/09/07 07:29:43;;;;;;;;;;;;;;;19.67;57.10;101866.59;5126863;27;924;-50
2021/09/07 07:32:08;;;;;;;;;;;;;;;19.66;57.00;101868.50;5117944;28;1914;-57
2021/09/07 07:34:34;;;;;;;;;;;;;;;19.63;57.25;101870.97;5117198;28;806;-57
2021/09/07 07:37:01;;;;;;;;;;;;;;;19.82;56.87;101863.09;5119069;28;790;-53
2021/09/07 07:39:26;;;;;;;;;;;;;;;19.70;57.19;101874.31;5118282;28;778;-44
2021/09/07 07:41:52;;;;;;;;;;;;;;;19.74;57.08;101872.69;5117554;27;1320;-58
2021/09/07 07:44:18;;;;;;;;;;;;;;;19.84;56.92;101871.94;5117634;27;949;-58
2021/09/07 07:46:43;;;;;;;;;;;;;;;19.76;57.22;101873.25;5118498;28;877;-54
2021/09/07 07:49:09;;;;;;;;;;;;;;;19.72;57.38;101883.16;5118345;28;827;-57
2021/09/07 07:51:35;;;;;;;;;;;;;;;19.92;56.78;101873.34;5118177;28;1918;-51
2021/09/07 07:54:01;;;;;;;;;;;;;;;19.87;56.79;101887.13;5118165;28;862;-56
2021/09/07 07:56:26;;;;;;;;;;;;;;;20.00;56.53;101887.44;5117044;28;795;-53
2021/09/07 07:58:52;;;;;;;;;;;;;;;19.68;57.46;101893.06;5117955;27;993;-44
2021/09/07 08:01:17;;;;;;;;;;;;;;;19.69;57.59;101891.97;5118109;28;866;-54
2021/09/07 08:03:46;;;;;;;;;;;;;;;19.69;57.55;101894.72;5117791;28;787;-57
2021/09/07 08:06:12;;;;;;;;;;;;;;;19.81;57.10;101889.88;5116724;28;835;-54
2021/09/07 08:08:37;;;;;;;;;;;;;;;19.71;57.38;101895.28;5116828;28;998;-56
2021/09/07 08:11:03;;;;;;;;;;;;;;;19.70;57.50;101890.03;5116165;28;1978;-45
2021/09/07 08:13:28;;;;;;;;;;;;;;;19.66;57.31;101895.28;5117660;27;1008;-50
2021/09/07 08:15:53;;;;;;;;;;;;;;;19.70;57.36;101892.78;5116849;28;751;-45
2021/09/07 08:18:19;;;;;;;;;;;;;;;19.70;57.26;101890.03;5117611;28;815;-55
2021/09/07 08:20:44;;;;;;;;;;;;;;;19.83;56.82;101893.19;5120159;27;1632;-51
2021/09/07 08:23:10;;;;;;;;;;;;;;;19.66;57.31;101887.81;5118826;27;837;-56
2021/09/07 08:25:35;;;;;;;;;;;;;;;19.73;57.24;101890.34;5136473;27;830;-44
2021/09/07 08:28:01;;;;;;;;;;;;;;;19.78;57.12;101890.38;5138351;27;841;-56
2021/09/07 08:30:26;;;;;;;;;;;;;;;19.87;56.93;101895.41;5119469;27;2340;-45
2021/09/07 08:32:52;;;;;;;;;;;;;;;19.76;57.23;101892.56;5115610;28;975;-56
2021/09/07 08:35:17;;;;;;;;;;;;;;;19.87;56.95;101890.72;5117069;28;771;-55
2021/09/07 08:37:43;;;;;;;;;;;;;;;19.74;57.43;101886.50;5117377;28;843;-43
2021/09/07 08:40:09;;;;;;;;;;;;;;;19.87;56.93;101885.19;5116173;28;775;-57
2021/09/07 08:42:35;;;;;;;;;;;;;;;19.92;56.72;101887.16;5116322;28;802;-54
2021/09/07 08:45:01;;;;;;;;;;;;;;;19.97;56.52;101879.72;5117025;27;1012;-56
2021/09/07 08:47:26;;;;;;;;;;;;;;;19.76;57.43;101877.94;5116600;28;783;-56
2021/09/07 08:49:51;;;;;;;;;;;;;;;19.79;57.45;101883.78;5116872;28;779;-55
2021/09/07 08:52:19;;;;;;;;;;;;;;;19.76;57.60;101884.28;5115911;28;1981;-56
2021/09/07 08:54:45;;;;;;;;;;;;;;;19.85;57.28;101881.03;5117052;28;791;-55
2021/09/07 08:57:10;;;;;;;;;;;;;;;19.98;56.99;101875.03;5116907;28;778;-57
2021/09/07 08:59:36;;;;;;;;;;;;;;;19.98;56.77;101870.34;5116619;27;1003;-56
2021/09/07 09:02:12;;;;;;;;;;;;;;;20.02;56.68;101881.69;5116470;28;790;-55
2021/09/07 09:04:37;;;;;;;;;;;;;;;20.02;56.71;101867.88;5115251;28;816;-55
2021/09/07 09:07:03;;;;;;;;;;;;;;;19.95;57.27;101867.28;5116403;28;758;-54
2021/09/07 09:09:36;;;;;;;;;;;;;;;19.87;57.16;101868.63;5116452;28;959;-55
2021/09/07 09:12:02;;;;;;;;;;;;;;;20.00;57.04;101872.81;5116947;28;1918;-56
2021/09/07 09:14:31;;;;;;;;;;;;;;;20.00;56.92;101873.66;5125197;27;1297;-55
2021/09/07 09:16:56;;;;;;;;;;;;;;;19.79;57.68;101880.16;5136567;27;870;-44
2021/09/07 09:19:22;;;;;;;;;;;;;;;19.99;57.24;101871.16;5135321;27;803;-46
2021/09/07 09:21:50;;;;;;;;;;;;;;;20.06;56.88;101871.72;5135939;27;1486;-54
2021/09/07 09:24:19;;;;;;;;;;;;;;;19.99;56.96;101874.75;5136311;27;1101;-54
2021/09/07 09:26:48;;;;;;;;;;;;;;;19.87;57.55;101876.91;5135236;27;1227;-47
2021/09/07 09:29:18;;;;;;;;;;;;;;;20.02;56.87;101876.16;5128150;27;925;-55
2021/09/07 09:31:50;;;;;;;;;;;;;;;19.86;57.31;101869.72;5114952;27;1914;-53
2021/09/07 09:34:16;;;;;;;;;;;;;;;19.91;57.24;101885.47;5115160;28;943;-55
2021/09/07 09:37:02;;;;;;;;;;;;;;;19.96;57.12;101872.56;5116433;28;758;-55
2021/09/07 09:39:43;;;;;;;;;;;;;;;19.97;56.91;101867.84;5115140;28;1343;-55
2021/09/07 09:42:18;;;;;;;;;;;;;;;19.95;57.25;101864.50;5116208;28;866;-49
2021/09/07 09:44:43;;;;;;;;;;;;;;;19.90;57.35;101876.38;5116086;27;965;-51
2021/09/07 09:47:09;;;;;;;;;;;;;;;19.82;57.57;101872.22;5128214;27;1114;-54
2021/09/07 09:49:34;;;;;;;;;;;;;;;19.88;57.03;101877.75;5136715;27;834;-48
2021/09/07 09:52:01;;;;;;;;;;;;;;;19.88;57.47;101874.97;5135568;27;1980;-42
2021/09/07 09:54:26;;;;;;;;;;;;;;;19.89;57.41;101873.88;5135838;27;834;-54
2021/09/07 09:56:52;;;;;;;;;;;;;;;19.82;57.66;101869.47;5118794;27;785;-54
2021/09/07 09:59:18;;;;;;;;;;;;;;;19.90;57.35;101873.63;5127108;27;948;-54
2021/09/07 10:01:44;;;;;;;;;;;;;;;19.86;57.41;101863.38;5114257;28;862;-56
2021/09/07 10:04:11;;;;;;;;;;;;;;;19.95;57.43;101868.13;5115935;28;817;-45
2021/09/07 10:06:37;;;;;;;;;;;;;;;20.03;57.25;101861.22;5097806;28;807;-53
2021/09/07 10:09:02;;;;;;;;;;;;;;;19.88;57.63;101863.94;5113503;28;940;-54
2021/09/07 10:11:28;;;;;;;;;;;;;;;19.98;57.34;101864.00;5114812;28;1906;-48
2021/09/07 10:13:55;;;;;;;;;;;;;;;19.93;57.42;101873.06;5116838;27;899;-43
2021/09/07 10:17:15;;;;;;;;;;;;;;;19.94;57.58;101868.41;5114353;28;767;-54
2021/09/07 10:19:37;;;;;;;;;;;;;;;20.03;57.31;101869.50;5110901;27;1052;-49
2021/09/07 10:24:50;;;;;;;;;;;;;;;20.09;56.92;101879.50;5135809;27;783;-43
2021/09/07 10:27:16;;;;;;;;;;;;;;;20.26;56.57;101886.72;5135980;27;746;-54
2021/09/07 10:29:41;;;;;;;;;;;;;;;20.08;57.01;101877.84;5134415;28;933;-53
2021/09/07 10:32:29;;;;;;;;;;;;;;;20.08;57.06;101875.06;5136145;27;1906;-50
2021/09/07 10:35:02;;;;;;;;;;;;;;;20.01;57.31;101880.00;5135540;28;834;-47
2021/09/07 10:37:28;;;;;;;;;;;;;;;20.02;57.28;101887.22;5135619;28;822;-51
2021/09/07 10:39:54;;;;;;;;;;;;;;;19.91;57.67;101886.31;5137628;27;740;-55
2021/09/07 10:42:38;;;;;;;;;;;;;;;20.03;57.47;101877.78;5140143;27;827;-53
2021/09/07 10:45:04;;;;;;;;;;;;;;;20.18;56.66;101869.56;5123675;27;944;-49
2021/09/07 10:47:42;;;;;;;;;;;;;;;20.27;56.56;101866.28;5118576;28;1240;-44
2021/09/07 10:50:08;;;;;;;;;;;;;;;20.32;56.23;101858.00;5119042;28;790;-54
2021/09/07 10:52:33;;;;;;;;;;;;;;;20.19;56.69;101864.91;5119253;28;1902;-48
2021/09/07 10:55:11;;;;;;;;;;;;;;;20.38;56.16;101872.66;5119522;28;867;-54
2021/09/07 11:00:03;;;;;;;;;;;;;;;20.11;57.00;101866.22;5118896;27;956;-51
2021/09/07 11:02:34;;;;;;;;;;;;;;;20.30;56.16;101866.56;5119228;28;790;-52
2021/09/07 11:05:03;;;;;;;;;;;;;;;20.51;55.89;101853.63;5119077;28;750;-44
2021/09/07 11:07:39;;;;;;;;;;;;;;;20.31;56.19;101861.88;5119188;28;759;-52
2021/09/07 11:10:27;;;;;;;;;;;;;;;20.21;56.61;101864.63;5118740;27;1118;-44
2021/09/07 11:12:56;;;;;;;;;;;;;;;20.15;56.69;101861.84;5118802;27;1904;-46
2021/09/07 11:15:26;;;;;;;;;;;;;;;20.29;56.35;101858.56;5118461;27;988;-47
2021/09/07 11:17:52;;;;;;;;;;;;;;;20.29;56.38;101856.63;5118968;28;838;-45
2021/09/07 11:20:18;;;;;;;;;;;;;;;20.20;56.82;101854.66;5119272;28;857;-58
2021/09/07 11:22:43;;;;;;;;;;;;;;;20.27;56.52;101858.00;5137610;27;1545;-42
2021/09/07 11:25:11;;;;;;;;;;;;;;;20.43;56.15;101859.69;5139341;27;878;-54
2021/09/07 11:27:56;;;;;;;;;;;;;;;20.33;56.25;101843.94;5138380;27;747;-48
2021/09/07 11:30:32;;;;;;;;;;;;;;;20.48;55.93;101845.03;5136324;27;1983;-43
2021/09/07 11:33:01;;;;;;;;;;;;;;;20.47;55.97;101835.94;5138799;27;723;-52
2021/09/07 11:35:27;;;;;;;;;;;;;;;20.30;56.44;101843.63;5139090;27;826;-53
2021/09/07 11:37:59;;;;;;;;;;;;;;;20.29;56.48;101844.75;5138967;27;797;-54
2021/09/07 11:40:25;;;;;;;;;;;;;;;20.15;56.92;101836.97;5120107;27;924;-54
2021/09/07 11:42:51;;;;;;;;;;;;;;;20.37;56.40;101840.63;5139040;27;829;-56
2021/09/07 11:45:23;;;;;;;;;;;;;;;20.25;56.55;101833.41;5137246;27;1271;-55
2021/09/07 11:47:52;;;;;;;;;;;;;;;20.31;56.55;101848.91;5137580;27;839;-53
2021/09/07 11:50:18;;;;;;;;;;;;;;;20.41;56.28;101837.06;5119479;27;1913;-44
2021/09/07 11:52:45;;;;;;;;;;;;;;;20.43;56.06;101843.13;5116798;28;978;-55
2021/09/07 11:55:30;;;;;;;;;;;;;;;20.41;56.26;101839.81;5118484;28;838;-54
2021/09/07 11:57:56;;;;;;;;;;;;;;;20.21;56.83;101842.53;5117973;28;1133;-52
2021/09/07 12:00:21;;;;;;;;;;;;;;;20.12;57.22;101842.22;5134360;27;1019;-48
2021/09/07 12:03:05;;;;;;;;;;;;;;;20.20;56.84;101843.63;5138232;27;747;-56
2021/09/07 12:05:53;;;;;;;;;;;;;;;20.27;56.65;101838.66;5138674;27;866;-49
2021/09/07 12:08:18;;;;;;;;;;;;;;;20.28;56.43;101832.84;5138544;27;822;-55
2021/09/07 12:11:10;;;;;;;;;;;;;;;20.23;56.64;101827.34;5138482;27;1917;-56
2021/09/07 12:13:35;;;;;;;;;;;;;;;20.24;56.78;101837.28;5110422;27;1082;-55
2021/09/07 12:16:01;;;;;;;;;;;;;;;20.20;56.91;101832.56;5117457;28;827;-44
2021/09/07 12:18:33;;;;;;;;;;;;;;;20.45;56.31;101840.91;5118004;28;878;-44
2021/09/07 12:21:05;;;;;;;;;;;;;;;20.27;56.69;101831.22;5121696;27;1615;-43
2021/09/07 12:23:31;;;;;;;;;;;;;;;20.37;56.55;101833.19;5137844;27;811;-48
2021/09/07 12:25:57;;;;;;;;;;;;;;;20.27;56.87;101828.47;5137115;27;834;-47
2021/09/07 12:28:25;;;;;;;;;;;;;;;20.28;56.78;101834.81;5136234;27;984;-49
2021/09/07 12:30:51;;;;;;;;;;;;;;;20.54;56.05;101834.84;5117914;28;1913;-46
2021/09/07 12:33:22;;;;;;;;;;;;;;;20.65;55.56;101839.25;5117205;27;858;-48
2021/09/07 12:35:50;;;;;;;;;;;;;;;20.37;56.36;101815.75;5116945;28;826;-49
2021/09/07 12:38:18;;;;;;;;;;;;;;;20.42;56.37;101830.41;5117549;28;767;-44
2021/09/07 12:40:45;;;;;;;;;;;;;;;20.48;56.43;101837.59;5117263;28;786;-49
2021/09/07 12:43:38;;;;;;;;;;;;;;;20.34;56.87;101826.25;5117093;28;799;-46
2021/09/07 12:46:05;;;;;;;;;;;;;;;20.58;56.10;101831.25;5115691;28;1164;-50
2021/09/07 12:48:31;;;;;;;;;;;;;;;20.46;56.59;101834.28;5117123;28;779;-50
2021/09/07 12:50:59;;;;;;;;;;;;;;;20.34;57.35;101836.47;5115974;28;1986;-51
2021/09/07 12:53:29;;;;;;;;;;;;;;;20.47;56.98;101844.22;5116921;28;854;-49
2021/09/07 12:55:55;;;;;;;;;;;;;;;20.45;56.81;101838.13;5099640;28;822;-47
2021/09/07 12:58:20;;;;;;;;;;;;;;;20.79;55.85;101834.88;5116969;27;1008;-48
2021/09/07 13:00:46;;;;;;;;;;;;;;;20.55;56.34;101830.97;5120498;27;1501;-50